createdAt,value
2022-08-25T00:00:30.413Z,33.00
2022-08-25T00:03:04.574Z,33.10
2022-08-25T00:05:38.136Z,33.00
2022-08-25T00:08:10.659Z,32.90
2022-08-25T00:11:02.889Z,32.70
2022-08-25T00:13:35.319Z,32.80
2022-08-25T00:16:08.361Z,32.60
2022-08-25T00:18:46.999Z,32.60
2022-08-25T00:21:22.810Z,32.50
2022-08-25T00:23:54.453Z,32.70
2022-08-25T00:26:27.250Z,32.40
2022-08-25T00:29:01.665Z,32.40
2022-08-25T00:31:38.176Z,32.70
2022-08-25T00:34:17.046Z,32.60
2022-08-25T00:36:51.927Z,32.60
2022-08-25T00:39:25.040Z,32.70
2022-08-25T00:41:59.365Z,32.60
2022-08-25T00:44:36.415Z,32.70
2022-08-25T00:47:10.311Z,32.50
2022-08-25T00:49:48.722Z,32.60
2022-08-25T00:52:25.413Z,32.40
2022-08-25T00:55:00.963Z,32.40
2022-08-25T00:57:39.897Z,32.20
2022-08-25T01:00:17.521Z,32.20
2022-08-25T01:02:49.127Z,32.20
2022-08-25T01:05:22.670Z,31.90
2022-08-25T01:07:58.553Z,31.90
2022-08-25T01:10:32.299Z,31.90
2022-08-25T01:13:14.622Z,31.90
2022-08-25T01:15:48.264Z,32.20
2022-08-25T01:18:22.008Z,32.40
2022-08-25T01:20:59.934Z,32.70
2022-08-25T01:23:31.046Z,32.90
2022-08-25T01:26:08.338Z,32.90
2022-08-25T01:29:01.153Z,32.80
2022-08-25T01:31:33.760Z,32.30
2022-08-25T01:34:07.608Z,31.70
2022-08-25T01:39:54.400Z,30.60
2022-08-25T01:42:45.677Z,30.20
2022-08-25T01:45:17.761Z,29.80
2022-08-25T01:47:57.008Z,29.40
2022-08-25T01:50:28.629Z,29.30
2022-08-25T01:56:35.182Z,29.10
2022-08-25T01:59:07.161Z,29.00
2022-08-25T02:01:38.226Z,28.80
2022-08-25T02:04:09.531Z,28.70
2022-08-25T02:06:41.725Z,28.60
2022-08-25T02:09:15.331Z,28.50
2022-08-25T02:11:51.167Z,28.50
2022-08-25T02:14:22.961Z,28.40
2022-08-25T02:16:56.529Z,28.30
2022-08-25T02:19:31.772Z,28.20
2022-08-25T02:24:35.940Z,28.10
2022-08-25T02:27:09.989Z,27.90
2022-08-25T02:29:41.225Z,27.80
2022-08-25T02:32:12.570Z,27.70
2022-08-25T02:34:44.534Z,27.60
2022-08-25T02:40:24.145Z,27.40
2022-08-25T02:46:51.849Z,27.20
2022-08-25T02:49:46.412Z,27.10
2022-08-25T03:11:57.787Z,26.00
2022-08-25T03:14:29.291Z,25.90
2022-08-25T03:17:00.572Z,25.70
2022-08-25T03:19:32.060Z,25.40
2022-08-25T03:22:15.389Z,25.20
2022-08-25T03:24:59.724Z,25.00
2022-08-25T03:27:42.014Z,24.70
2022-08-25T03:30:28.022Z,24.60
2022-08-25T03:32:59.775Z,24.50
2022-08-25T03:38:41.139Z,24.40
2022-08-25T03:41:20.536Z,24.40
2022-08-25T03:44:18.757Z,24.30
2022-08-25T03:46:57.178Z,24.30
2022-08-25T03:52:15.000Z,24.20
2022-08-25T03:57:48.353Z,24.10
2022-08-25T04:00:26.620Z,23.90
2022-08-25T04:03:11.125Z,23.90
2022-08-25T04:05:52.960Z,23.80
2022-08-25T04:08:24.236Z,23.80
2022-08-25T04:10:56.022Z,23.70
2022-08-25T04:13:42.750Z,23.70
2022-08-25T04:16:16.269Z,23.60
2022-08-25T04:18:47.951Z,23.60
2022-08-25T04:21:22.980Z,23.50
2022-08-25T04:23:56.026Z,23.50
2022-08-25T04:26:28.908Z,23.50
2022-08-25T04:29:04.854Z,23.50
2022-08-25T04:31:36.276Z,23.40
2022-08-25T04:34:30.793Z,23.40
2022-08-25T04:37:05.293Z,23.40
2022-08-25T04:39:41.854Z,23.30
2022-08-25T04:45:29.097Z,23.30
2022-08-25T04:48:14.136Z,23.30
2022-08-25T04:50:45.342Z,23.20
2022-08-25T04:53:17.880Z,23.10
2022-08-25T04:55:52.743Z,23.10
2022-08-25T04:58:23.797Z,23.10
2022-08-25T05:01:06.434Z,23.10
2022-08-25T05:03:37.786Z,23.00
2022-08-25T05:06:12.824Z,23.00
2022-08-25T05:08:47.186Z,22.90
2022-08-25T05:11:20.550Z,22.90
2022-08-25T05:13:56.071Z,22.90
2022-08-25T05:16:31.743Z,22.80
2022-08-25T05:19:03.017Z,22.80
2022-08-25T05:21:34.577Z,22.70
2022-08-25T05:24:06.308Z,22.70
2022-08-25T05:26:39.550Z,22.60
2022-08-25T05:29:12.108Z,22.60
2022-08-25T05:31:50.295Z,22.60
2022-08-25T05:34:23.297Z,22.60
2022-08-25T05:36:54.474Z,22.50
2022-08-25T05:39:26.867Z,22.40
2022-08-25T05:41:58.342Z,22.40
2022-08-25T05:44:34.155Z,22.40
2022-08-25T05:47:08.085Z,22.30
2022-08-25T05:49:39.556Z,22.30
2022-08-25T05:52:12.509Z,22.30
2022-08-25T05:54:46.768Z,22.30
2022-08-25T05:57:18.108Z,22.20
2022-08-25T05:59:49.706Z,22.20
2022-08-25T06:02:39.532Z,22.20
2022-08-25T06:08:15.381Z,22.10
2022-08-25T06:10:48.320Z,22.10
2022-08-25T06:13:26.891Z,22.00
2022-08-25T06:16:02.070Z,22.00
2022-08-25T06:18:35.205Z,21.90
2022-08-25T06:21:14.431Z,21.90
2022-08-25T06:23:45.513Z,21.90
2022-08-25T06:26:21.254Z,21.80
2022-08-25T06:28:53.577Z,21.80
2022-08-25T06:31:26.191Z,21.70
2022-08-25T06:33:59.737Z,21.60
2022-08-25T06:36:31.197Z,21.50
2022-08-25T06:39:02.160Z,21.50
2022-08-25T06:41:36.865Z,21.50
2022-08-25T06:44:09.926Z,21.40
2022-08-25T06:46:41.399Z,21.40
2022-08-25T06:49:16.259Z,21.40
2022-08-25T06:51:47.816Z,21.40
2022-08-25T06:54:20.441Z,21.30
2022-08-25T06:57:19.496Z,21.30
2022-08-25T06:59:53.529Z,21.30
2022-08-25T07:02:24.997Z,21.20
2022-08-25T07:04:57.724Z,21.20
2022-08-25T07:07:43.651Z,21.20
2022-08-25T07:10:16.562Z,21.10
2022-08-25T07:12:52.382Z,21.10
2022-08-25T07:15:24.162Z,21.10
2022-08-25T07:17:55.441Z,21.00
2022-08-25T07:20:30.813Z,21.00
2022-08-25T07:23:02.083Z,20.90
2022-08-25T07:25:34.157Z,20.90
2022-08-25T07:28:06.545Z,20.90
2022-08-25T07:30:41.473Z,20.80
2022-08-25T07:33:13.955Z,20.80
2022-08-25T07:35:50.378Z,20.80
2022-08-25T07:38:23.398Z,20.80
2022-08-25T07:40:57.952Z,20.70
2022-08-25T07:43:29.189Z,20.70
2022-08-25T07:46:00.325Z,20.70
2022-08-25T07:48:32.144Z,20.60
2022-08-25T07:51:12.191Z,20.60
2022-08-25T07:53:45.062Z,20.60
2022-08-25T07:56:18.355Z,20.60
2022-08-25T07:58:50.982Z,20.50
2022-08-25T08:01:23.939Z,20.50
2022-08-25T08:03:56.876Z,20.40
2022-08-25T08:06:32.092Z,20.40
2022-08-25T08:09:03.849Z,20.40
2022-08-25T08:11:45.160Z,20.40
2022-08-25T08:14:25.222Z,20.40
2022-08-25T08:16:56.655Z,20.30
2022-08-25T08:19:28.543Z,20.30
2022-08-25T08:22:03.280Z,20.20
2022-08-25T08:24:44.871Z,20.20
2022-08-25T08:27:27.290Z,20.20
2022-08-25T08:35:42.895Z,20.00
2022-08-25T08:38:22.321Z,20.00
2022-08-25T08:41:26.841Z,20.10
2022-08-25T08:44:06.611Z,20.00
2022-08-25T08:46:46.652Z,20.00
2022-08-25T08:49:26.777Z,20.00
2022-08-25T08:52:04.816Z,20.00
2022-08-25T08:54:41.869Z,19.90
2022-08-25T08:57:17.859Z,19.90
2022-08-25T08:59:55.098Z,19.90
2022-08-25T09:02:39.396Z,19.80
2022-08-25T09:05:25.661Z,19.80
2022-08-25T09:08:01.865Z,19.80
2022-08-25T09:10:47.347Z,19.70
2022-08-25T09:13:27.090Z,19.70
2022-08-25T09:16:34.487Z,19.70
2022-08-25T09:19:23.669Z,19.70
2022-08-25T09:21:59.671Z,19.70
2022-08-25T09:24:43.029Z,19.60
2022-08-25T09:27:27.852Z,19.60
2022-08-25T09:30:10.497Z,19.60
2022-08-25T09:32:49.029Z,19.50
2022-08-25T09:35:27.188Z,19.50
2022-08-25T09:38:02.828Z,19.50
2022-08-25T09:40:36.649Z,19.40
2022-08-25T09:43:26.177Z,19.40
2022-08-25T09:46:04.788Z,19.30
2022-08-25T09:48:40.815Z,19.30
2022-08-25T09:51:21.739Z,19.20
2022-08-25T09:53:58.169Z,19.20
2022-08-25T09:56:32.760Z,19.10
2022-08-25T09:59:34.709Z,19.10
2022-08-25T10:02:27.701Z,19.10
2022-08-25T10:05:00.537Z,19.00
2022-08-25T10:07:36.558Z,19.00
2022-08-25T10:10:19.496Z,19.00
2022-08-25T10:12:51.734Z,19.00
2022-08-25T10:15:30.388Z,19.00
2022-08-25T10:18:25.754Z,19.00
2022-08-25T10:21:11.537Z,19.00
2022-08-25T10:23:46.571Z,18.90
2022-08-25T10:26:35.023Z,18.90
2022-08-25T10:29:26.597Z,18.90
2022-08-25T10:32:04.028Z,18.90
2022-08-25T10:34:46.735Z,18.90
2022-08-25T10:37:33.563Z,18.90
2022-08-25T10:40:16.949Z,18.80
2022-08-25T10:42:59.586Z,18.80
2022-08-25T10:45:48.810Z,18.70
2022-08-25T10:48:46.124Z,18.70
2022-08-25T10:51:45.952Z,18.70
2022-08-25T10:54:33.028Z,18.70
2022-08-25T10:57:16.596Z,18.70
2022-08-25T10:59:58.768Z,18.70
2022-08-25T11:03:03.249Z,18.60
2022-08-25T11:05:44.748Z,18.70
2022-08-25T11:08:22.430Z,18.60
2022-08-25T11:10:58.903Z,18.60
2022-08-25T11:13:42.019Z,18.60
2022-08-25T11:16:18.555Z,18.60
2022-08-25T11:18:59.447Z,18.50
2022-08-25T11:21:41.819Z,18.50
2022-08-25T11:24:24.993Z,18.50
2022-08-25T11:27:00.342Z,18.50
2022-08-25T11:29:37.572Z,18.40
2022-08-25T11:32:12.183Z,18.40
2022-08-25T11:34:43.969Z,18.40
2022-08-25T11:37:25.285Z,18.40
2022-08-25T11:40:26.273Z,18.40
2022-08-25T11:43:08.070Z,18.40
2022-08-25T11:46:01.866Z,18.30
2022-08-25T11:48:45.113Z,18.40
2022-08-25T11:51:36.478Z,18.30
2022-08-25T11:54:26.518Z,18.30
2022-08-25T11:57:04.016Z,18.30
2022-08-25T12:00:11.133Z,18.30
2022-08-25T12:02:46.181Z,18.20
2022-08-25T12:05:50.031Z,18.20
2022-08-25T12:08:57.582Z,18.10
2022-08-25T12:11:55.710Z,18.10
2022-08-25T12:14:54.362Z,18.10
2022-08-25T12:17:41.300Z,18.10
2022-08-25T12:20:14.613Z,18.10
2022-08-25T12:22:58.503Z,18.10
2022-08-25T12:25:53.787Z,18.10
2022-08-25T12:28:59.944Z,18.10
2022-08-25T12:32:09.275Z,18.10
2022-08-25T12:35:24.052Z,18.10
2022-08-25T12:38:07.714Z,18.10
2022-08-25T12:40:42.632Z,18.10
2022-08-25T12:43:25.978Z,18.00
2022-08-25T12:46:18.691Z,18.00
2022-08-25T12:49:04.200Z,17.90
2022-08-25T12:51:58.985Z,17.90
2022-08-25T12:54:42.409Z,17.90
2022-08-25T12:57:34.883Z,17.90
2022-08-25T13:00:18.605Z,17.90
2022-08-25T13:03:30.141Z,17.90
2022-08-25T13:06:31.366Z,17.90
2022-08-25T13:09:29.550Z,17.90
2022-08-25T13:12:11.829Z,17.90
2022-08-25T13:14:45.538Z,17.90
2022-08-25T13:17:29.294Z,17.90
2022-08-25T13:20:22.165Z,17.90
2022-08-25T13:23:00.298Z,17.90
2022-08-25T13:25:33.976Z,17.80
2022-08-25T13:28:11.154Z,17.90
2022-08-25T13:30:42.795Z,17.80
2022-08-25T13:33:22.506Z,17.90
2022-08-25T13:36:17.034Z,17.90
2022-08-25T13:38:51.918Z,17.90
2022-08-25T13:41:29.525Z,17.90
2022-08-25T13:44:05.153Z,17.90
2022-08-25T13:46:37.044Z,17.90
2022-08-25T13:49:11.258Z,18.00
2022-08-25T13:51:54.345Z,18.00
2022-08-25T13:54:35.238Z,18.00
2022-08-25T13:57:19.431Z,17.90
2022-08-25T13:59:55.265Z,18.00
2022-08-25T14:02:45.935Z,18.10
2022-08-25T14:05:36.061Z,18.10
2022-08-25T14:08:16.008Z,18.00
2022-08-25T14:11:15.078Z,18.00
2022-08-25T14:13:48.426Z,18.10
2022-08-25T14:16:25.759Z,18.10
2022-08-25T14:18:59.506Z,18.20
2022-08-25T14:21:32.117Z,18.20
2022-08-25T14:24:07.993Z,18.20
2022-08-25T14:26:54.247Z,18.30
2022-08-25T14:29:26.228Z,18.30
2022-08-25T14:31:58.525Z,18.30
2022-08-25T14:34:33.691Z,18.40
2022-08-25T14:37:04.855Z,18.40
2022-08-25T14:39:46.242Z,18.50
2022-08-25T14:42:21.084Z,18.50
2022-08-25T14:44:56.579Z,18.60
2022-08-25T14:47:28.225Z,18.70
2022-08-25T14:50:03.749Z,18.90
2022-08-25T14:52:34.875Z,19.10
2022-08-25T14:55:31.369Z,19.20
2022-08-25T14:58:06.854Z,19.30
2022-08-25T15:00:40.522Z,19.40
2022-08-25T15:03:22.564Z,19.50
2022-08-25T15:05:54.128Z,19.50
2022-08-25T15:08:43.886Z,19.60
2022-08-25T15:11:27.670Z,19.70
2022-08-25T15:17:17.376Z,20.00
2022-08-25T15:19:51.289Z,20.10
2022-08-25T15:22:29.601Z,20.30
2022-08-25T15:25:15.389Z,20.30
2022-08-25T15:27:50.012Z,20.50
2022-08-25T15:30:31.914Z,20.50
2022-08-25T15:33:13.473Z,20.70
2022-08-25T15:35:45.894Z,20.80
2022-08-25T15:38:23.951Z,20.90
2022-08-25T15:43:57.591Z,21.00
2022-08-25T15:46:42.327Z,21.10
2022-08-25T15:49:23.447Z,21.20
2022-08-25T15:51:56.798Z,21.40
2022-08-25T15:54:40.169Z,21.40
2022-08-25T15:57:18.042Z,21.50
2022-08-25T16:02:46.290Z,21.80
2022-08-25T16:05:18.412Z,21.80
2022-08-25T16:07:55.007Z,21.90
2022-08-25T16:10:39.455Z,21.90
2022-08-25T16:13:25.985Z,22.00
2022-08-25T16:15:58.180Z,22.10
2022-08-25T16:18:31.451Z,22.30
2022-08-25T16:21:02.781Z,22.40
2022-08-25T16:23:44.156Z,22.50
2022-08-25T16:26:16.126Z,22.60
2022-08-25T16:28:49.651Z,22.60
2022-08-25T16:31:20.987Z,22.70
2022-08-25T16:33:58.190Z,22.80
2022-08-25T16:36:45.819Z,22.70
2022-08-25T16:39:18.532Z,22.80
2022-08-25T16:41:50.114Z,22.80
2022-08-25T16:44:39.424Z,22.80
2022-08-25T16:47:27.111Z,22.80
2022-08-25T16:50:01.409Z,22.80
2022-08-25T16:52:50.116Z,22.80
2022-08-25T16:55:25.752Z,22.80
2022-08-25T16:57:58.336Z,22.90
2022-08-25T17:00:32.039Z,22.90
2022-08-25T17:03:22.284Z,23.00
2022-08-25T17:06:17.479Z,23.00
2022-08-25T17:08:50.514Z,23.10
2022-08-25T17:11:26.212Z,23.20
2022-08-25T17:14:00.517Z,23.30
2022-08-25T17:16:35.612Z,23.30
2022-08-25T17:19:14.362Z,23.30
2022-08-25T17:22:06.093Z,23.30
2022-08-25T17:24:40.535Z,23.40
2022-08-25T17:27:13.673Z,23.40
2022-08-25T17:29:47.237Z,23.40
2022-08-25T17:32:19.373Z,23.50
2022-08-25T17:35:01.753Z,23.60
2022-08-25T17:37:39.941Z,23.60
2022-08-25T17:40:12.849Z,23.70
2022-08-25T17:42:45.228Z,23.80
2022-08-25T17:45:16.719Z,23.90
2022-08-25T17:47:48.832Z,23.90
2022-08-25T17:50:20.960Z,24.00
2022-08-25T17:52:59.142Z,24.10
2022-08-25T17:55:31.330Z,24.20
2022-08-25T17:58:04.090Z,24.40
2022-08-25T18:00:39.970Z,24.30
2022-08-25T18:03:15.989Z,24.40
2022-08-25T18:05:48.251Z,24.50
2022-08-25T18:08:21.853Z,24.50
2022-08-25T18:11:08.425Z,24.60
2022-08-25T18:13:41.437Z,24.50
2022-08-25T18:16:16.785Z,24.50
2022-08-25T18:18:49.417Z,24.70
2022-08-25T18:21:30.621Z,24.80
2022-08-25T18:24:04.957Z,24.90
2022-08-25T18:26:36.397Z,25.00
2022-08-25T18:29:07.758Z,25.10
2022-08-25T18:31:39.074Z,25.20
2022-08-25T18:34:13.607Z,25.20
2022-08-25T18:40:00.955Z,25.40
2022-08-25T18:42:33.038Z,25.40
2022-08-25T18:45:06.371Z,25.60
2022-08-25T18:47:38.328Z,25.70
2022-08-25T18:50:10.810Z,25.90
2022-08-25T18:52:41.899Z,25.80
2022-08-25T18:55:16.860Z,25.70
2022-08-25T18:57:52.403Z,25.80
2022-08-25T19:03:24.516Z,26.00
2022-08-25T19:05:59.028Z,26.20
2022-08-25T19:08:30.302Z,26.20
2022-08-25T19:11:03.835Z,26.30
2022-08-25T19:13:37.517Z,26.30
2022-08-25T19:16:17.782Z,26.30
2022-08-25T19:18:52.284Z,26.30
2022-08-25T19:21:24.848Z,26.40
2022-08-25T19:23:56.456Z,26.40
2022-08-25T19:26:31.543Z,26.40
2022-08-25T19:29:02.834Z,26.40
2022-08-25T19:31:35.899Z,26.50
2022-08-25T19:34:07.980Z,26.50
2022-08-25T19:36:40.003Z,26.70
2022-08-25T19:39:13.656Z,26.80
2022-08-25T19:41:50.189Z,26.90
2022-08-25T19:44:21.546Z,26.80
2022-08-25T19:46:53.197Z,26.90
2022-08-25T19:49:27.196Z,27.00
2022-08-25T19:52:03.963Z,27.10
2022-08-25T19:54:37.000Z,27.30
2022-08-25T19:57:12.223Z,27.30
2022-08-25T19:59:46.412Z,27.40
2022-08-25T20:02:21.776Z,27.30
2022-08-25T20:04:54.569Z,27.50
2022-08-25T20:07:28.686Z,27.50
2022-08-25T20:10:01.820Z,27.40
2022-08-25T20:12:36.609Z,27.50
2022-08-25T20:15:10.113Z,27.50
2022-08-25T20:17:41.780Z,27.60
2022-08-25T20:20:16.659Z,27.90
2022-08-25T20:22:48.600Z,27.90
2022-08-25T20:25:22.196Z,28.10
2022-08-25T20:27:59.641Z,28.00
2022-08-25T20:33:23.139Z,28.40
2022-08-25T20:35:54.846Z,28.70
2022-08-25T20:38:28.063Z,28.80
2022-08-25T20:40:59.321Z,28.80
2022-08-25T20:43:53.012Z,28.90
2022-08-25T20:46:25.419Z,29.10
2022-08-25T20:49:04.754Z,29.40
2022-08-25T20:51:36.279Z,29.50
2022-08-25T20:54:11.189Z,29.50
2022-08-25T20:56:42.393Z,29.60
2022-08-25T20:59:41.184Z,29.80
2022-08-25T21:10:41.166Z,29.80
2022-08-25T21:13:12.476Z,29.80
2022-08-25T21:15:49.549Z,30.00
2022-08-25T21:18:20.876Z,30.00
2022-08-25T21:20:52.815Z,30.10
2022-08-25T21:23:24.581Z,29.90
2022-08-25T21:25:57.542Z,29.70
2022-08-25T21:28:29.443Z,30.00
2022-08-25T21:31:03.098Z,30.20
2022-08-25T21:33:35.803Z,30.50
2022-08-25T21:36:11.319Z,30.40
2022-08-25T21:38:55.491Z,30.60
2022-08-25T21:41:29.938Z,30.50
2022-08-25T21:44:02.393Z,30.60
2022-08-25T21:46:36.254Z,30.60
2022-08-25T21:49:18.832Z,30.80
2022-08-25T21:52:00.331Z,30.90
2022-08-25T21:54:33.073Z,30.80
2022-08-25T21:57:06.332Z,30.90
2022-08-25T21:59:41.849Z,31.20
2022-08-25T22:02:22.348Z,31.30
2022-08-25T22:04:57.584Z,31.20
2022-08-25T22:07:46.675Z,31.50
2022-08-25T22:13:07.313Z,31.90
2022-08-25T22:15:38.573Z,32.00
2022-08-25T22:18:12.254Z,32.20
2022-08-25T22:20:45.406Z,32.40
2022-08-25T22:23:32.774Z,32.20
2022-08-25T22:26:12.206Z,32.40
2022-08-25T22:28:44.161Z,32.60
2022-08-25T22:31:32.481Z,32.80
2022-08-25T22:34:08.702Z,32.90
2022-08-25T22:36:41.505Z,32.90
2022-08-25T22:39:12.876Z,32.90
2022-08-25T22:41:46.916Z,33.10
2022-08-25T22:44:18.340Z,33.20
2022-08-25T22:46:49.646Z,33.20
2022-08-25T22:49:23.923Z,33.30
2022-08-25T22:51:55.554Z,33.10
2022-08-25T22:54:27.337Z,33.40
2022-08-25T22:56:58.437Z,33.60
2022-08-25T22:59:33.199Z,33.60
2022-08-25T23:02:04.945Z,33.90
2022-08-25T23:04:43.528Z,34.00
2022-08-25T23:07:15.353Z,34.10
2022-08-25T23:09:47.276Z,33.80
2022-08-25T23:12:19.103Z,33.30
2022-08-25T23:14:53.382Z,33.50
2022-08-25T23:17:26.304Z,33.40
2022-08-25T23:20:00.471Z,33.60
2022-08-25T23:22:30.460Z,33.80
2022-08-25T23:25:09.980Z,34.00
2022-08-25T23:27:41.344Z,33.80
2022-08-25T23:30:14.045Z,34.10
2022-08-25T23:32:54.871Z,33.80
2022-08-25T23:41:23.613Z,34.00
2022-08-25T23:43:55.739Z,34.00
2022-08-25T23:46:29.981Z,33.90
2022-08-25T23:49:01.569Z,34.10
2022-08-25T23:51:38.836Z,34.00
2022-08-25T23:54:12.326Z,33.90
2022-08-25T23:56:51.388Z,33.90
2022-08-25T23:59:23.962Z,33.90
